sensor_id;sensor_type;location;lat;lon;timestamp;temperature;humidity
4874;DHT22;2451;49.970;9.068;2023-05-10T00:00:36;15.00;99.90
4874;DHT22;2451;49.970;9.068;2023-05-10T00:03:02;14.90;99.90
4874;DHT22;2451;49.970;9.068;2023-05-10T00:05:31;14.80;99.90
4874;DHT22;2451;49.970;9.068;2023-05-10T00:07:56;14.80;99.90
4874;DHT22;2451;49.970;9.068;2023-05-10T00:10:22;14.70;99.90
4874;DHT22;2451;49.970;9.068;2023-05-10T00:12:47;14.70;99.90
4874;DHT22;2451;49.970;9.068;2023-05-10T00:15:13;14.70;99.90
4874;DHT22;2451;49.970;9.068;2023-05-10T00:17:38;14.60;99.90
4874;DHT22;2451;49.970;9.068;2023-05-10T00:20:04;14.50;99.90
4874;DHT22;2451;49.970;9.068;2023-05-10T00:22:31;14.50;99.90
4874;DHT22;2451;49.970;9.068;2023-05-10T00:24:57;14.40;99.90
4874;DHT22;2451;49.970;9.068;2023-05-10T00:27:23;14.40;99.90
4874;DHT22;2451;49.970;9.068;2023-05-10T00:29:48;14.40;99.90
4874;DHT22;2451;49.970;9.068;2023-05-10T00:32:14;14.30;99.90
4874;DHT22;2451;49.970;9.068;2023-05-10T00:34:39;14.30;99.90
4874;DHT22;2451;49.970;9.068;2023-05-10T00:37:05;14.20;99.90
4874;DHT22;2451;49.970;9.068;2023-05-10T00:39:30;14.20;99.90
4874;DHT22;2451;49.970;9.068;2023-05-10T00:41:56;14.20;99.90
4874;DHT22;2451;49.970;9.068;2023-05-10T00:44:22;14.20;99.90
4874;DHT22;2451;49.970;9.068;2023-05-10T00:46:49;14.20;99.90
4874;DHT22;2451;49.970;9.068;2023-05-10T00:49:15;14.10;99.90
4874;DHT22;2451;49.970;9.068;2023-05-10T00:51:41;14.10;99.90
4874;DHT22;2451;49.970;9.068;2023-05-10T00:54:09;14.10;99.90
4874;DHT22;2451;49.970;9.068;2023-05-10T00:56:36;14.00;99.90
4874;DHT22;2451;49.970;9.068;2023-05-10T00:59:02;14.00;99.90
4874;DHT22;2451;49.970;9.068;2023-05-10T01:01:28;14.00;99.90
4874;DHT22;2451;49.970;9.068;2023-05-10T01:03:54;13.90;99.90
4874;DHT22;2451;49.970;9.068;2023-05-10T01:06:20;13.90;99.90
4874;DHT22;2451;49.970;9.068;2023-05-10T01:08:46;13.90;99.90
4874;DHT22;2451;49.970;9.068;2023-05-10T01:11:13;13.80;99.90
4874;DHT22;2451;49.970;9.068;2023-05-10T01:13:40;13.80;99.90
4874;DHT22;2451;49.970;9.068;2023-05-10T01:16:07;13.80;99.90
4874;DHT22;2451;49.970;9.068;2023-05-10T01:18:35;13.80;99.90
4874;DHT22;2451;49.970;9.068;2023-05-10T01:23:54;13.70;99.90
4874;DHT22;2451;49.970;9.068;2023-05-10T01:32:35;13.60;99.90
4874;DHT22;2451;49.970;9.068;2023-05-10T01:35:10;13.60;99.90
4874;DHT22;2451;49.970;9.068;2023-05-10T01:37:44;13.60;99.90
4874;DHT22;2451;49.970;9.068;2023-05-10T01:40:26;13.50;99.90
4874;DHT22;2451;49.970;9.068;2023-05-10T01:42:58;13.50;99.90
4874;DHT22;2451;49.970;9.068;2023-05-10T01:45:32;13.50;99.90
4874;DHT22;2451;49.970;9.068;2023-05-10T01:48:06;13.40;99.90
4874;DHT22;2451;49.970;9.068;2023-05-10T01:50:32;13.40;99.90
4874;DHT22;2451;49.970;9.068;2023-05-10T01:53:00;13.40;99.90
4874;DHT22;2451;49.970;9.068;2023-05-10T01:55:29;13.40;99.90
4874;DHT22;2451;49.970;9.068;2023-05-10T01:58:07;13.40;99.90
4874;DHT22;2451;49.970;9.068;2023-05-10T02:00:35;13.40;99.90
4874;DHT22;2451;49.970;9.068;2023-05-10T02:03:05;13.40;99.90
4874;DHT22;2451;49.970;9.068;2023-05-10T02:05:32;13.40;99.90
4874;DHT22;2451;49.970;9.068;2023-05-10T02:07:59;13.40;99.90
4874;DHT22;2451;49.970;9.068;2023-05-10T02:10:27;13.40;99.90
4874;DHT22;2451;49.970;9.068;2023-05-10T02:12:55;13.40;99.90
4874;DHT22;2451;49.970;9.068;2023-05-10T02:15:24;13.30;99.90
4874;DHT22;2451;49.970;9.068;2023-05-10T02:17:52;13.30;99.90
4874;DHT22;2451;49.970;9.068;2023-05-10T02:20:20;13.30;99.90
4874;DHT22;2451;49.970;9.068;2023-05-10T02:22:49;13.30;99.90
4874;DHT22;2451;49.970;9.068;2023-05-10T02:25:17;13.30;99.90
4874;DHT22;2451;49.970;9.068;2023-05-10T02:27:44;13.30;99.90
4874;DHT22;2451;49.970;9.068;2023-05-10T02:30:11;13.30;99.90
4874;DHT22;2451;49.970;9.068;2023-05-10T02:32:38;13.30;99.90
4874;DHT22;2451;49.970;9.068;2023-05-10T02:35:04;13.30;99.90
4874;DHT22;2451;49.970;9.068;2023-05-10T02:37:31;13.30;99.90
4874;DHT22;2451;49.970;9.068;2023-05-10T02:39:58;13.30;99.90
4874;DHT22;2451;49.970;9.068;2023-05-10T02:42:28;13.30;99.90
4874;DHT22;2451;49.970;9.068;2023-05-10T02:45:00;13.30;99.90
4874;DHT22;2451;49.970;9.068;2023-05-10T02:47:26;13.30;99.90
4874;DHT22;2451;49.970;9.068;2023-05-10T02:49:52;13.30;99.90
4874;DHT22;2451;49.970;9.068;2023-05-10T02:52:24;13.20;99.90
4874;DHT22;2451;49.970;9.068;2023-05-10T02:54:54;13.30;99.90
4874;DHT22;2451;49.970;9.068;2023-05-10T02:57:26;13.20;99.90
4874;DHT22;2451;49.970;9.068;2023-05-10T02:59:52;13.10;99.90
4874;DHT22;2451;49.970;9.068;2023-05-10T03:02:18;13.10;99.90
4874;DHT22;2451;49.970;9.068;2023-05-10T03:04:47;13.20;99.90
4874;DHT22;2451;49.970;9.068;2023-05-10T03:07:13;13.10;99.90
4874;DHT22;2451;49.970;9.068;2023-05-10T03:09:39;13.10;99.90
4874;DHT22;2451;49.970;9.068;2023-05-10T03:12:10;13.10;99.90
4874;DHT22;2451;49.970;9.068;2023-05-10T03:19:56;13.10;99.90
4874;DHT22;2451;49.970;9.068;2023-05-10T03:22:26;13.20;99.90
4874;DHT22;2451;49.970;9.068;2023-05-10T03:24:56;13.10;99.90
4874;DHT22;2451;49.970;9.068;2023-05-10T03:27:23;13.20;99.90
4874;DHT22;2451;49.970;9.068;2023-05-10T03:29:51;13.10;99.90
4874;DHT22;2451;49.970;9.068;2023-05-10T03:32:17;13.10;99.90
4874;DHT22;2451;49.970;9.068;2023-05-10T03:34:43;13.10;99.90
4874;DHT22;2451;49.970;9.068;2023-05-10T03:37:09;13.10;99.90
4874;DHT22;2451;49.970;9.068;2023-05-10T03:39:35;13.10;99.90
4874;DHT22;2451;49.970;9.068;2023-05-10T03:42:00;13.20;99.90
4874;DHT22;2451;49.970;9.068;2023-05-10T03:44:26;13.10;99.90
4874;DHT22;2451;49.970;9.068;2023-05-10T03:46:51;13.10;99.90
4874;DHT22;2451;49.970;9.068;2023-05-10T03:49:17;13.10;99.90
4874;DHT22;2451;49.970;9.068;2023-05-10T03:51:42;13.10;99.90
4874;DHT22;2451;49.970;9.068;2023-05-10T03:54:08;13.10;99.90
4874;DHT22;2451;49.970;9.068;2023-05-10T03:56:33;13.10;99.90
4874;DHT22;2451;49.970;9.068;2023-05-10T03:58:59;13.20;99.90
4874;DHT22;2451;49.970;9.068;2023-05-10T04:01:24;13.20;99.90
4874;DHT22;2451;49.970;9.068;2023-05-10T04:03:50;13.30;99.90
4874;DHT22;2451;49.970;9.068;2023-05-10T04:06:16;13.30;99.90
4874;DHT22;2451;49.970;9.068;2023-05-10T04:08:41;13.30;99.90
4874;DHT22;2451;49.970;9.068;2023-05-10T04:11:11;13.30;99.90
4874;DHT22;2451;49.970;9.068;2023-05-10T04:13:38;13.30;99.90
4874;DHT22;2451;49.970;9.068;2023-05-10T04:16:04;13.30;99.90
4874;DHT22;2451;49.970;9.068;2023-05-10T04:18:30;13.30;99.90
4874;DHT22;2451;49.970;9.068;2023-05-10T04:20:57;13.40;99.90
4874;DHT22;2451;49.970;9.068;2023-05-10T04:23:22;13.30;99.90
4874;DHT22;2451;49.970;9.068;2023-05-10T04:25:48;13.30;99.90
4874;DHT22;2451;49.970;9.068;2023-05-10T04:28:14;13.40;99.90
4874;DHT22;2451;49.970;9.068;2023-05-10T04:30:39;13.40;99.90
4874;DHT22;2451;49.970;9.068;2023-05-10T04:33:05;13.40;99.90
4874;DHT22;2451;49.970;9.068;2023-05-10T04:35:31;13.50;99.90
4874;DHT22;2451;49.970;9.068;2023-05-10T04:37:57;13.50;99.90
4874;DHT22;2451;49.970;9.068;2023-05-10T04:40:22;13.50;99.90
4874;DHT22;2451;49.970;9.068;2023-05-10T04:42:48;13.50;99.90
4874;DHT22;2451;49.970;9.068;2023-05-10T04:45:13;13.50;99.90
4874;DHT22;2451;49.970;9.068;2023-05-10T04:47:41;13.60;99.90
4874;DHT22;2451;49.970;9.068;2023-05-10T04:50:07;13.60;99.90
4874;DHT22;2451;49.970;9.068;2023-05-10T04:52:33;13.60;99.90
4874;DHT22;2451;49.970;9.068;2023-05-10T04:54:59;13.70;99.90
4874;DHT22;2451;49.970;9.068;2023-05-10T04:57:24;13.70;99.90
4874;DHT22;2451;49.970;9.068;2023-05-10T04:59:50;13.70;99.90
4874;DHT22;2451;49.970;9.068;2023-05-10T05:02:16;13.70;99.90
4874;DHT22;2451;49.970;9.068;2023-05-10T05:04:41;13.80;99.90
4874;DHT22;2451;49.970;9.068;2023-05-10T05:07:07;13.80;99.90
4874;DHT22;2451;49.970;9.068;2023-05-10T05:09:32;13.80;99.90
4874;DHT22;2451;49.970;9.068;2023-05-10T05:11:58;13.90;99.90
4874;DHT22;2451;49.970;9.068;2023-05-10T05:14:24;13.90;99.90
4874;DHT22;2451;49.970;9.068;2023-05-10T05:16:51;14.00;99.90
4874;DHT22;2451;49.970;9.068;2023-05-10T05:19:16;14.00;99.90
4874;DHT22;2451;49.970;9.068;2023-05-10T05:21:42;14.00;99.90
4874;DHT22;2451;49.970;9.068;2023-05-10T05:24:07;14.00;99.90
4874;DHT22;2451;49.970;9.068;2023-05-10T05:26:33;13.90;99.90
4874;DHT22;2451;49.970;9.068;2023-05-10T05:28:59;13.90;99.90
4874;DHT22;2451;49.970;9.068;2023-05-10T05:31:24;13.90;99.90
4874;DHT22;2451;49.970;9.068;2023-05-10T05:33:50;13.90;99.90
4874;DHT22;2451;49.970;9.068;2023-05-10T05:36:15;13.90;99.90
4874;DHT22;2451;49.970;9.068;2023-05-10T05:38:41;13.80;99.90
4874;DHT22;2451;49.970;9.068;2023-05-10T05:41:08;13.80;99.90
4874;DHT22;2451;49.970;9.068;2023-05-10T05:43:33;13.80;99.90
4874;DHT22;2451;49.970;9.068;2023-05-10T05:45:59;13.80;99.90
4874;DHT22;2451;49.970;9.068;2023-05-10T05:48:25;13.80;99.90
4874;DHT22;2451;49.970;9.068;2023-05-10T05:50:53;13.80;99.90
4874;DHT22;2451;49.970;9.068;2023-05-10T05:53:19;13.80;99.90
4874;DHT22;2451;49.970;9.068;2023-05-10T05:55:55;13.80;99.90
4874;DHT22;2451;49.970;9.068;2023-05-10T05:58:22;13.80;99.90
4874;DHT22;2451;49.970;9.068;2023-05-10T06:00:48;13.70;99.90
4874;DHT22;2451;49.970;9.068;2023-05-10T06:03:13;13.80;99.90
4874;DHT22;2451;49.970;9.068;2023-05-10T06:05:39;13.80;99.90
4874;DHT22;2451;49.970;9.068;2023-05-10T06:08:04;13.80;99.90
4874;DHT22;2451;49.970;9.068;2023-05-10T06:10:30;13.80;99.90
4874;DHT22;2451;49.970;9.068;2023-05-10T06:12:56;13.90;99.90
4874;DHT22;2451;49.970;9.068;2023-05-10T06:15:22;13.90;99.90
4874;DHT22;2451;49.970;9.068;2023-05-10T06:17:47;14.00;99.90
4874;DHT22;2451;49.970;9.068;2023-05-10T06:20:15;14.00;99.90
4874;DHT22;2451;49.970;9.068;2023-05-10T06:22:41;14.00;99.90
4874;DHT22;2451;49.970;9.068;2023-05-10T06:25:07;14.00;99.90
4874;DHT22;2451;49.970;9.068;2023-05-10T06:27:32;14.00;99.90
4874;DHT22;2451;49.970;9.068;2023-05-10T06:29:58;14.00;99.90
4874;DHT22;2451;49.970;9.068;2023-05-10T06:32:24;14.00;99.90
4874;DHT22;2451;49.970;9.068;2023-05-10T06:34:49;14.00;99.90
4874;DHT22;2451;49.970;9.068;2023-05-10T06:37:15;14.00;99.90
4874;DHT22;2451;49.970;9.068;2023-05-10T06:39:40;14.10;99.90
4874;DHT22;2451;49.970;9.068;2023-05-10T06:42:06;14.10;99.90
4874;DHT22;2451;49.970;9.068;2023-05-10T06:44:31;14.10;99.90
4874;DHT22;2451;49.970;9.068;2023-05-10T06:46:57;14.10;99.90
4874;DHT22;2451;49.970;9.068;2023-05-10T06:49:23;14.10;99.90
4874;DHT22;2451;49.970;9.068;2023-05-10T06:51:48;14.10;99.90
4874;DHT22;2451;49.970;9.068;2023-05-10T06:54:14;14.10;99.90
4874;DHT22;2451;49.970;9.068;2023-05-10T06:56:39;14.10;99.90
4874;DHT22;2451;49.970;9.068;2023-05-10T06:59:05;14.10;99.90
4874;DHT22;2451;49.970;9.068;2023-05-10T07:01:32;14.20;99.90
4874;DHT22;2451;49.970;9.068;2023-05-10T07:03:57;14.20;99.90
4874;DHT22;2451;49.970;9.068;2023-05-10T07:06:23;14.20;99.90
4874;DHT22;2451;49.970;9.068;2023-05-10T07:08:48;14.20;99.90
4874;DHT22;2451;49.970;9.068;2023-05-10T07:11:14;14.20;99.90
4874;DHT22;2451;49.970;9.068;2023-05-10T07:13:39;14.30;99.90
4874;DHT22;2451;49.970;9.068;2023-05-10T07:16:06;14.30;99.90
4874;DHT22;2451;49.970;9.068;2023-05-10T07:18:33;14.40;99.90
4874;DHT22;2451;49.970;9.068;2023-05-10T07:20:58;14.40;99.90
4874;DHT22;2451;49.970;9.068;2023-05-10T07:23:24;14.50;99.90
4874;DHT22;2451;49.970;9.068;2023-05-10T07:25:51;14.50;99.90
4874;DHT22;2451;49.970;9.068;2023-05-10T07:28:20;14.60;99.90
4874;DHT22;2451;49.970;9.068;2023-05-10T07:30:45;14.70;99.90
4874;DHT22;2451;49.970;9.068;2023-05-10T07:33:13;14.70;99.90
4874;DHT22;2451;49.970;9.068;2023-05-10T07:35:39;14.60;99.90
4874;DHT22;2451;49.970;9.068;2023-05-10T07:38:05;14.60;99.90
4874;DHT22;2451;49.970;9.068;2023-05-10T07:40:30;14.60;99.90
4874;DHT22;2451;49.970;9.068;2023-05-10T07:42:56;14.60;99.90
4874;DHT22;2451;49.970;9.068;2023-05-10T07:45:22;14.60;99.90
4874;DHT22;2451;49.970;9.068;2023-05-10T07:47:48;14.70;99.90
4874;DHT22;2451;49.970;9.068;2023-05-10T07:50:14;14.70;99.90
4874;DHT22;2451;49.970;9.068;2023-05-10T07:52:39;14.60;99.90
4874;DHT22;2451;49.970;9.068;2023-05-10T07:55:05;14.70;99.90
4874;DHT22;2451;49.970;9.068;2023-05-10T07:57:33;14.70;99.90
4874;DHT22;2451;49.970;9.068;2023-05-10T07:59:59;14.70;99.90
4874;DHT22;2451;49.970;9.068;2023-05-10T08:02:24;14.80;99.90
4874;DHT22;2451;49.970;9.068;2023-05-10T08:04:50;14.90;99.90
4874;DHT22;2451;49.970;9.068;2023-05-10T08:07:16;14.90;99.90
4874;DHT22;2451;49.970;9.068;2023-05-10T08:09:42;14.90;99.90
4874;DHT22;2451;49.970;9.068;2023-05-10T08:12:07;15.00;99.90
4874;DHT22;2451;49.970;9.068;2023-05-10T08:14:33;15.10;99.90
4874;DHT22;2451;49.970;9.068;2023-05-10T08:16:59;15.20;99.90
4874;DHT22;2451;49.970;9.068;2023-05-10T08:19:24;15.30;99.90
4874;DHT22;2451;49.970;9.068;2023-05-10T08:21:50;15.40;99.90
4874;DHT22;2451;49.970;9.068;2023-05-10T08:24:16;15.50;99.90
4874;DHT22;2451;49.970;9.068;2023-05-10T08:26:41;15.50;99.90
4874;DHT22;2451;49.970;9.068;2023-05-10T08:29:07;15.60;99.90
4874;DHT22;2451;49.970;9.068;2023-05-10T08:31:33;15.70;99.90
4874;DHT22;2451;49.970;9.068;2023-05-10T08:33:58;15.70;99.90
4874;DHT22;2451;49.970;9.068;2023-05-10T08:36:24;15.70;99.90
4874;DHT22;2451;49.970;9.068;2023-05-10T08:38:53;15.70;99.90
4874;DHT22;2451;49.970;9.068;2023-05-10T08:41:23;15.80;99.90
4874;DHT22;2451;49.970;9.068;2023-05-10T08:43:50;15.80;99.90
4874;DHT22;2451;49.970;9.068;2023-05-10T08:46:17;15.80;99.90
4874;DHT22;2451;49.970;9.068;2023-05-10T08:48:45;15.80;99.90
4874;DHT22;2451;49.970;9.068;2023-05-10T08:51:13;15.80;99.90
4874;DHT22;2451;49.970;9.068;2023-05-10T08:53:39;15.80;99.90
4874;DHT22;2451;49.970;9.068;2023-05-10T08:56:05;16.00;99.90
4874;DHT22;2451;49.970;9.068;2023-05-10T08:58:31;16.00;99.90
4874;DHT22;2451;49.970;9.068;2023-05-10T09:00:59;16.20;99.90
4874;DHT22;2451;49.970;9.068;2023-05-10T09:03:24;16.40;99.90
4874;DHT22;2451;49.970;9.068;2023-05-10T09:05:50;16.60;99.90
4874;DHT22;2451;49.970;9.068;2023-05-10T09:08:17;16.60;99.90
4874;DHT22;2451;49.970;9.068;2023-05-10T09:10:45;16.70;99.90
4874;DHT22;2451;49.970;9.068;2023-05-10T09:13:14;16.70;99.90
4874;DHT22;2451;49.970;9.068;2023-05-10T09:15:40;16.60;99.90
4874;DHT22;2451;49.970;9.068;2023-05-10T09:18:06;16.60;99.90
4874;DHT22;2451;49.970;9.068;2023-05-10T09:20:32;16.60;99.90
4874;DHT22;2451;49.970;9.068;2023-05-10T09:22:57;16.60;99.90
4874;DHT22;2451;49.970;9.068;2023-05-10T09:25:23;16.70;99.90
4874;DHT22;2451;49.970;9.068;2023-05-10T09:27:49;16.80;99.90
4874;DHT22;2451;49.970;9.068;2023-05-10T09:30:33;16.70;99.90
4874;DHT22;2451;49.970;9.068;2023-05-10T09:32:59;16.70;99.90
4874;DHT22;2451;49.970;9.068;2023-05-10T09:35:27;16.60;99.90
4874;DHT22;2451;49.970;9.068;2023-05-10T09:37:56;16.50;99.90
4874;DHT22;2451;49.970;9.068;2023-05-10T09:40:23;16.40;99.90
4874;DHT22;2451;49.970;9.068;2023-05-10T09:43:00;16.10;99.90
4874;DHT22;2451;49.970;9.068;2023-05-10T09:45:28;15.90;99.90
4874;DHT22;2451;49.970;9.068;2023-05-10T09:47:54;15.80;99.90
4874;DHT22;2451;49.970;9.068;2023-05-10T09:50:20;15.70;99.90
4874;DHT22;2451;49.970;9.068;2023-05-10T09:52:51;15.50;99.90
4874;DHT22;2451;49.970;9.068;2023-05-10T09:55:20;15.40;99.90
4874;DHT22;2451;49.970;9.068;2023-05-10T09:57:46;15.40;99.90
4874;DHT22;2451;49.970;9.068;2023-05-10T10:00:19;15.40;99.90
4874;DHT22;2451;49.970;9.068;2023-05-10T10:02:55;15.50;99.90
4874;DHT22;2451;49.970;9.068;2023-05-10T10:05:27;15.60;99.90
4874;DHT22;2451;49.970;9.068;2023-05-10T10:07:57;15.70;99.90
4874;DHT22;2451;49.970;9.068;2023-05-10T10:10:24;15.70;99.90
4874;DHT22;2451;49.970;9.068;2023-05-10T10:12:51;15.80;99.90
4874;DHT22;2451;49.970;9.068;2023-05-10T10:15:16;15.90;99.90
4874;DHT22;2451;49.970;9.068;2023-05-10T10:17:43;16.10;99.90
4874;DHT22;2451;49.970;9.068;2023-05-10T10:20:09;16.10;99.90
4874;DHT22;2451;49.970;9.068;2023-05-10T10:22:36;16.20;99.90
4874;DHT22;2451;49.970;9.068;2023-05-10T10:25:02;16.40;99.90
4874;DHT22;2451;49.970;9.068;2023-05-10T10:27:47;16.60;99.90
4874;DHT22;2451;49.970;9.068;2023-05-10T10:30:30;17.00;99.90
4874;DHT22;2451;49.970;9.068;2023-05-10T10:35:29;17.70;99.90
4874;DHT22;2451;49.970;9.068;2023-05-10T10:37:56;17.70;99.90
4874;DHT22;2451;49.970;9.068;2023-05-10T10:40:29;17.60;99.90
4874;DHT22;2451;49.970;9.068;2023-05-10T10:42:56;17.40;99.90
4874;DHT22;2451;49.970;9.068;2023-05-10T10:45:23;17.30;99.90
4874;DHT22;2451;49.970;9.068;2023-05-10T10:48:14;17.10;99.90
4874;DHT22;2451;49.970;9.068;2023-05-10T10:50:45;16.90;99.90
4874;DHT22;2451;49.970;9.068;2023-05-10T10:53:11;16.50;99.90
4874;DHT22;2451;49.970;9.068;2023-05-10T10:55:46;16.20;99.90
4874;DHT22;2451;49.970;9.068;2023-05-10T10:58:29;15.80;99.90
4874;DHT22;2451;49.970;9.068;2023-05-10T11:01:17;15.50;99.90
4874;DHT22;2451;49.970;9.068;2023-05-10T11:06:34;15.20;99.90
4874;DHT22;2451;49.970;9.068;2023-05-10T11:09:05;15.20;99.90
4874;DHT22;2451;49.970;9.068;2023-05-10T11:11:31;15.20;99.90
4874;DHT22;2451;49.970;9.068;2023-05-10T11:14:03;15.20;99.90
4874;DHT22;2451;49.970;9.068;2023-05-10T11:16:43;15.30;99.90
4874;DHT22;2451;49.970;9.068;2023-05-10T11:19:12;15.30;99.90
4874;DHT22;2451;49.970;9.068;2023-05-10T11:21:46;15.30;99.90
4874;DHT22;2451;49.970;9.068;2023-05-10T11:24:15;15.40;99.90
4874;DHT22;2451;49.970;9.068;2023-05-10T11:26:40;15.60;99.90
4874;DHT22;2451;49.970;9.068;2023-05-10T11:29:07;15.70;99.90
4874;DHT22;2451;49.970;9.068;2023-05-10T11:31:32;15.80;99.90
4874;DHT22;2451;49.970;9.068;2023-05-10T11:33:59;15.90;99.90
4874;DHT22;2451;49.970;9.068;2023-05-10T11:36:28;15.90;99.90
4874;DHT22;2451;49.970;9.068;2023-05-10T11:38:55;16.00;99.90
4874;DHT22;2451;49.970;9.068;2023-05-10T11:41:22;16.10;99.90
4874;DHT22;2451;49.970;9.068;2023-05-10T11:43:55;16.10;99.90
4874;DHT22;2451;49.970;9.068;2023-05-10T11:46:25;16.30;99.90
4874;DHT22;2451;49.970;9.068;2023-05-10T11:48:53;16.50;99.90
4874;DHT22;2451;49.970;9.068;2023-05-10T11:51:24;16.60;99.90
4874;DHT22;2451;49.970;9.068;2023-05-10T11:53:52;16.60;99.90
4874;DHT22;2451;49.970;9.068;2023-05-10T11:56:18;16.50;99.90
4874;DHT22;2451;49.970;9.068;2023-05-10T11:58:44;16.30;99.90
4874;DHT22;2451;49.970;9.068;2023-05-10T12:01:10;16.10;99.90
4874;DHT22;2451;49.970;9.068;2023-05-10T12:03:36;15.90;99.90
4874;DHT22;2451;49.970;9.068;2023-05-10T12:06:03;15.90;99.90
4874;DHT22;2451;49.970;9.068;2023-05-10T12:08:29;15.80;99.90
4874;DHT22;2451;49.970;9.068;2023-05-10T12:11:09;15.80;99.90
4874;DHT22;2451;49.970;9.068;2023-05-10T12:13:40;15.80;99.90
4874;DHT22;2451;49.970;9.068;2023-05-10T12:16:23;15.80;99.90
4874;DHT22;2451;49.970;9.068;2023-05-10T12:18:55;15.80;99.90
4874;DHT22;2451;49.970;9.068;2023-05-10T12:21:21;15.90;99.90
4874;DHT22;2451;49.970;9.068;2023-05-10T12:23:50;15.80;99.90
4874;DHT22;2451;49.970;9.068;2023-05-10T12:26:16;15.90;99.90
4874;DHT22;2451;49.970;9.068;2023-05-10T12:28:41;16.00;99.90
4874;DHT22;2451;49.970;9.068;2023-05-10T12:31:07;16.20;99.90
4874;DHT22;2451;49.970;9.068;2023-05-10T12:33:44;16.40;99.90
4874;DHT22;2451;49.970;9.068;2023-05-10T12:36:11;16.70;99.90
4874;DHT22;2451;49.970;9.068;2023-05-10T12:38:38;16.90;99.90
4874;DHT22;2451;49.970;9.068;2023-05-10T12:41:06;17.30;99.90
4874;DHT22;2451;49.970;9.068;2023-05-10T12:43:33;17.50;99.90
4874;DHT22;2451;49.970;9.068;2023-05-10T12:46:07;17.80;99.90
4874;DHT22;2451;49.970;9.068;2023-05-10T12:48:34;18.20;99.90
4874;DHT22;2451;49.970;9.068;2023-05-10T12:51:01;18.50;99.90
4874;DHT22;2451;49.970;9.068;2023-05-10T12:53:27;18.60;99.90
4874;DHT22;2451;49.970;9.068;2023-05-10T12:55:52;18.70;99.90
4874;DHT22;2451;49.970;9.068;2023-05-10T12:58:19;18.90;99.90
4874;DHT22;2451;49.970;9.068;2023-05-10T13:00:45;18.90;99.90
4874;DHT22;2451;49.970;9.068;2023-05-10T13:03:10;19.20;99.90
4874;DHT22;2451;49.970;9.068;2023-05-10T13:05:36;19.30;99.90
4874;DHT22;2451;49.970;9.068;2023-05-10T13:08:02;19.50;99.90
4874;DHT22;2451;49.970;9.068;2023-05-10T13:10:29;19.70;99.90
4874;DHT22;2451;49.970;9.068;2023-05-10T13:12:56;19.90;99.90
4874;DHT22;2451;49.970;9.068;2023-05-10T13:15:21;19.90;99.90
4874;DHT22;2451;49.970;9.068;2023-05-10T13:17:47;20.00;99.90
4874;DHT22;2451;49.970;9.068;2023-05-10T13:20:13;19.80;99.90
4874;DHT22;2451;49.970;9.068;2023-05-10T13:22:38;19.70;99.90
4874;DHT22;2451;49.970;9.068;2023-05-10T13:25:04;19.40;99.90
4874;DHT22;2451;49.970;9.068;2023-05-10T13:27:30;19.30;99.90
4874;DHT22;2451;49.970;9.068;2023-05-10T13:29:55;19.30;99.90
4874;DHT22;2451;49.970;9.068;2023-05-10T13:32:21;19.20;99.90
4874;DHT22;2451;49.970;9.068;2023-05-10T13:34:46;19.00;99.90
4874;DHT22;2451;49.970;9.068;2023-05-10T13:37:12;18.90;99.90
4874;DHT22;2451;49.970;9.068;2023-05-10T13:39:37;18.80;99.90
4874;DHT22;2451;49.970;9.068;2023-05-10T13:42:04;18.80;99.90
4874;DHT22;2451;49.970;9.068;2023-05-10T13:44:30;18.90;99.90
4874;DHT22;2451;49.970;9.068;2023-05-10T13:46:56;19.20;99.90
4874;DHT22;2451;49.970;9.068;2023-05-10T13:49:22;19.40;99.90
4874;DHT22;2451;49.970;9.068;2023-05-10T13:51:47;19.50;99.90
4874;DHT22;2451;49.970;9.068;2023-05-10T13:54:13;19.50;99.90
4874;DHT22;2451;49.970;9.068;2023-05-10T13:56:39;19.60;99.90
4874;DHT22;2451;49.970;9.068;2023-05-10T13:59:06;19.60;99.90
4874;DHT22;2451;49.970;9.068;2023-05-10T14:01:33;19.70;99.90
4874;DHT22;2451;49.970;9.068;2023-05-10T14:03:59;19.70;99.90
4874;DHT22;2451;49.970;9.068;2023-05-10T14:06:24;19.70;99.90
4874;DHT22;2451;49.970;9.068;2023-05-10T14:08:50;19.80;99.90
4874;DHT22;2451;49.970;9.068;2023-05-10T14:11:15;19.70;99.90
4874;DHT22;2451;49.970;9.068;2023-05-10T14:13:41;19.80;99.90
4874;DHT22;2451;49.970;9.068;2023-05-10T14:16:07;19.70;99.90
4874;DHT22;2451;49.970;9.068;2023-05-10T14:18:32;19.50;99.90
4874;DHT22;2451;49.970;9.068;2023-05-10T14:20:58;19.40;99.90
4874;DHT22;2451;49.970;9.068;2023-05-10T14:23:23;19.30;99.90
4874;DHT22;2451;49.970;9.068;2023-05-10T14:25:50;19.20;99.90
4874;DHT22;2451;49.970;9.068;2023-05-10T14:28:16;19.10;99.90
4874;DHT22;2451;49.970;9.068;2023-05-10T14:30:43;18.90;99.90
4874;DHT22;2451;49.970;9.068;2023-05-10T14:33:10;18.80;99.90
4874;DHT22;2451;49.970;9.068;2023-05-10T14:35:35;18.70;99.90
4874;DHT22;2451;49.970;9.068;2023-05-10T14:38:02;18.60;99.90
4874;DHT22;2451;49.970;9.068;2023-05-10T14:40:29;18.70;99.90
4874;DHT22;2451;49.970;9.068;2023-05-10T14:42:54;18.70;99.90
4874;DHT22;2451;49.970;9.068;2023-05-10T14:45:21;18.90;99.90
4874;DHT22;2451;49.970;9.068;2023-05-10T14:47:46;19.10;99.90
4874;DHT22;2451;49.970;9.068;2023-05-10T14:50:12;19.10;99.90
4874;DHT22;2451;49.970;9.068;2023-05-10T14:52:37;19.00;99.90
4874;DHT22;2451;49.970;9.068;2023-05-10T14:55:03;19.10;99.90
4874;DHT22;2451;49.970;9.068;2023-05-10T14:57:29;19.00;99.90
4874;DHT22;2451;49.970;9.068;2023-05-10T14:59:55;19.10;99.90
4874;DHT22;2451;49.970;9.068;2023-05-10T15:02:21;19.00;99.90
4874;DHT22;2451;49.970;9.068;2023-05-10T15:04:47;19.00;99.90
4874;DHT22;2451;49.970;9.068;2023-05-10T15:07:13;19.20;99.90
4874;DHT22;2451;49.970;9.068;2023-05-10T15:09:41;19.10;99.90
4874;DHT22;2451;49.970;9.068;2023-05-10T15:12:07;19.00;99.90
4874;DHT22;2451;49.970;9.068;2023-05-10T15:14:32;18.90;99.90
4874;DHT22;2451;49.970;9.068;2023-05-10T15:16:58;18.90;99.90
4874;DHT22;2451;49.970;9.068;2023-05-10T15:19:24;19.10;99.90
4874;DHT22;2451;49.970;9.068;2023-05-10T15:21:49;19.20;99.90
4874;DHT22;2451;49.970;9.068;2023-05-10T15:24:15;19.40;99.90
4874;DHT22;2451;49.970;9.068;2023-05-10T15:26:41;19.40;99.90
4874;DHT22;2451;49.970;9.068;2023-05-10T15:29:06;19.40;99.90
4874;DHT22;2451;49.970;9.068;2023-05-10T15:31:32;19.30;99.90
4874;DHT22;2451;49.970;9.068;2023-05-10T15:34:01;19.20;99.90
4874;DHT22;2451;49.970;9.068;2023-05-10T15:36:26;19.10;99.90
4874;DHT22;2451;49.970;9.068;2023-05-10T15:38:55;19.00;99.90
4874;DHT22;2451;49.970;9.068;2023-05-10T15:41:21;18.90;99.90
4874;DHT22;2451;49.970;9.068;2023-05-10T15:43:46;18.90;99.90
4874;DHT22;2451;49.970;9.068;2023-05-10T15:46:12;18.80;99.90
4874;DHT22;2451;49.970;9.068;2023-05-10T15:48:37;18.70;99.90
4874;DHT22;2451;49.970;9.068;2023-05-10T15:51:04;18.70;99.90
4874;DHT22;2451;49.970;9.068;2023-05-10T15:53:30;18.70;99.90
4874;DHT22;2451;49.970;9.068;2023-05-10T15:55:55;18.70;99.90
4874;DHT22;2451;49.970;9.068;2023-05-10T15:58:21;18.60;99.90
4874;DHT22;2451;49.970;9.068;2023-05-10T16:00:46;18.70;99.90
4874;DHT22;2451;49.970;9.068;2023-05-10T16:03:12;18.70;99.90
4874;DHT22;2451;49.970;9.068;2023-05-10T16:05:38;18.60;99.90
4874;DHT22;2451;49.970;9.068;2023-05-10T16:08:03;18.60;99.90
4874;DHT22;2451;49.970;9.068;2023-05-10T16:10:31;18.60;99.90
4874;DHT22;2451;49.970;9.068;2023-05-10T16:12:57;18.50;99.90
4874;DHT22;2451;49.970;9.068;2023-05-10T16:15:23;18.50;99.90
4874;DHT22;2451;49.970;9.068;2023-05-10T16:17:48;18.50;99.90
4874;DHT22;2451;49.970;9.068;2023-05-10T16:20:14;18.70;99.90